Burnside, KY

5:15 AM EST on December 11, 2016 (GMT -0500)
Bridge Hollow | | Change Station

Elev 965 ft 37.00 °N, 84.66 °W | Updated 22 seconds ago

Mostly Cloudy
Mostly Cloudy
26.6 °F
Feels Like 27 °F
N
2.2
Wind Variable Wind from East

Today
High -- | Low -- °F
--% Chance of Precip.
Yesterday
High -- | Low -- °F
Precip. -- in
Pressure 30.33 in
Visibility 10.0 miles
Clouds Clear
Windchill 27 °F
Dew Point 20 °F
Humidity 75%
Rainfall 0.00 in
Snow Depth Not available.
7:41 AM 5:21 PM
Waxing Gibbous, 90% visible
METAR KSME 110955Z AUTO 00000KT 10SM CLR M05/M08 A3033 RMK AO2
Pressure 30.33 in
Visibility 10.0 miles
Clouds Clear
Windchill 27 °F
Dew Point 20 °F
Humidity 75%
Rainfall 0.00 in
Snow Depth Not available.
7:41 AM 5:21 PM
Waxing Gibbous, 90% visible
METAR KSME 110955Z AUTO 00000KT 10SM CLR M05/M08 A3033 RMK AO2

10-Day Weather Forecast

Almanac

Astronomy

Dec. 11, 2016 Rise Set
Actual Time
Civil Twilight
Nautical Twilight
Astronomical Twilight
Moon
Length of Visible Light
Length of Day
Tomorrow will be .
, % of the Moon is Illuminated

Today's Extremes

State Highs State Lows

Community

WunderPhotos

Upload Photos

1,956,702 photos uploaded!

WunderBlog® & News

Nearby

Air Quality

  Air Quality AQ Index Pollutant
Not available.

Snow Depth

Station Depth Elevation

Earthquake Activity

City Distance Mag. Time & Date
Minimum magnitude displayed is 2.5.

Coastal Water Temperatures

Place Temperature

Stations

Nearby Weather Stations

Station Location Temp. Windchill Dew Point Humidity Wind Precip. Elev Updated Type
                   

Watches & Warnings

There are currently no watches in effect.